Puerto Plata, Dominican Republic

4:38 PM AST on July 21, 2017 (GMT -0400)
Costambar | | Change Station

Elev 43 ft 19.81 °N, 70.71 °W | Updated 6 seconds ago

Mostly Cloudy
Mostly Cloudy
86.7 °F
Feels Like 108 °F
N
6.3
Wind Variable Wind from NE
Gusts 7.6 mph

Today
High -- | Low -- °F
--% Chance of Precip.
Yesterday
High -- | Low -- °F
Precip. -- in
Pressure 29.98 in
Visibility 6.2 miles
Clouds Few 1800 ft
Scattered Clouds 2000 ft
Mostly Cloudy 30000 ft
Heat Index 108 °F
Dew Point 84 °F
Humidity 90%
Rainfall 0.18 in
Snow Depth Not available.
6:14 AM 7:23 PM
Waning Crescent, 4% visible
METAR MDPP 212000Z 09006KT 9999 FEW018CB SCT020 BKN300 29/25 Q1015 CB/S/SW
Pressure 29.98 in
Visibility 6.2 miles
Clouds Few 1800 ft
Scattered Clouds 2000 ft
Mostly Cloudy 30000 ft
Heat Index 108 °F
Dew Point 84 °F
Humidity 90%
Rainfall 0.18 in
Snow Depth Not available.
6:14 AM 7:23 PM
Waning Crescent, 4% visible
METAR MDPP 212000Z 09006KT 9999 FEW018CB SCT020 BKN300 29/25 Q1015 CB/S/SW

Get Severe Weather Alerts

Thanks for signing up!

Be on the lookout for a verification email in your inbox.

You'll start receiving the daily forecast at 6 AM.

×

10-Day Weather Forecast

No radar image for this location.
×

Almanac

Astronomy

Jul. 21, 2017 Rise Set
Actual Time
Civil Twilight
Nautical Twilight
Astronomical Twilight
Moon
Length of Visible Light
Length of Day
Tomorrow will be .
, % of the Moon is Illuminated

Today's Extremes

Country Highs Country Lows

Community

WunderPhotos

Category 6

Welcome to Category 6. This is the collective home for Weather Underground's featured writeups by Dr. Jeff Masters (right), Bob Henson (left), Chris Burt, and other regular contributors.

Nearby

Air Quality

  Air Quality AQ Index Pollutant
Not available.

Snow Depth

Station Depth Elevation

Earthquake Activity

City Distance Mag. Time & Date
Minimum magnitude displayed is 2.5.

Coastal Water Temperatures

Place Temperature

Stations

Nearby Weather Stations

Station Location Temp. Windchill Dew Point Humidity Wind Precip. Elev Updated Type